Time;durP1;ratioP1;P1;durP2;ratioP2;P2;SDS_P1;SDS_P2;PMS_P1;PMS_P2;Temp;Humidity;BMP_temperature;BMP_pressure;BME280_temperature;BME280_humidity;BME280_pressure;Samples;Min_cycle;Max_cycle;Signal;HPM_P1;HPM_P2
2022/07/03 00:01:23;;;;;;;;;;;15.20;97.10;;;;;;4989063;28;19940;-76
2022/07/03 00:03:50;;;;;;;;;;;15.30;97.00;;;;;;4986978;28;20390;-74
2022/07/03 00:06:16;;;;;;;;;;;15.30;97.20;;;;;;4990967;28;19925;-74
2022/07/03 00:08:43;;;;;;;;;;;15.40;97.00;;;;;;4990708;28;19922;-77
2022/07/03 00:11:10;;;;;;;;;;;15.40;97.00;;;;;;4957175;28;19918;-74
2022/07/03 00:13:36;;;;;;;;;;;15.40;96.80;;;;;;4990766;28;20724;-74
2022/07/03 00:16:03;;;;;;;;;;;15.40;96.90;;;;;;4991004;28;20398;-74
2022/07/03 00:18:29;;;;;;;;;;;15.30;96.70;;;;;;4991246;28;19996;-75
2022/07/03 00:21:05;;;;;;;;;;;15.40;96.50;;;;;;4991400;28;20020;-73
2022/07/03 00:24:01;;;;;;;;;;;15.40;95.90;;;;;;4973815;28;19932;-74
2022/07/03 00:26:28;;;;;;;;;;;15.40;95.20;;;;;;4920253;28;19934;-75
2022/07/03 00:28:55;;;;;;;;;;;15.50;95.40;;;;;;4973446;28;20471;-78
2022/07/03 00:31:22;;;;;;;;;;;15.50;95.80;;;;;;4973426;28;19932;-77
2022/07/03 00:33:49;;;;;;;;;;;15.40;95.80;;;;;;4974092;28;19910;-78
2022/07/03 00:36:16;;;;;;;;;;;15.50;96.00;;;;;;4990750;28;19914;-77
2022/07/03 00:38:44;;;;;;;;;;;15.50;95.10;;;;;;4973160;28;19922;-77
2022/07/03 00:41:22;;;;;;;;;;;15.60;94.00;;;;;;4990844;28;19910;-74
2022/07/03 00:43:49;;;;;;;;;;;15.60;93.20;;;;;;4973135;28;19909;-79
2022/07/03 00:46:15;;;;;;;;;;;15.80;91.50;;;;;;4973069;28;20326;-76
2022/07/03 00:48:42;;;;;;;;;;;15.80;91.40;;;;;;4973288;28;20344;-75
2022/07/03 00:51:08;;;;;;;;;;;16.00;91.30;;;;;;4973149;28;20360;-75
2022/07/03 00:53:36;;;;;;;;;;;16.00;91.50;;;;;;4971352;28;19960;-77
2022/07/03 00:56:03;;;;;;;;;;;16.00;91.00;;;;;;4973621;28;19997;-74
2022/07/03 00:58:30;;;;;;;;;;;16.00;90.30;;;;;;4973144;28;19913;-74
2022/07/03 01:00:57;;;;;;;;;;;15.90;90.60;;;;;;4972994;28;19932;-74
2022/07/03 01:03:24;;;;;;;;;;;15.80;90.70;;;;;;4989325;28;20371;-74
2022/07/03 01:05:52;;;;;;;;;;;16.00;90.50;;;;;;4972861;28;19920;-75
2022/07/03 01:08:26;;;;;;;;;;;16.00;90.90;;;;;;4972338;28;19917;-73
2022/07/03 01:10:52;;;;;;;;;;;16.10;90.80;;;;;;4972842;28;19910;-73
2022/07/03 01:13:19;;;;;;;;;;;16.20;88.60;;;;;;4990339;28;19910;-72
2022/07/03 01:15:51;;;;;;;;;;;16.20;88.00;;;;;;4990105;28;20329;-71
2022/07/03 01:18:30;;;;;;;;;;;16.30;88.10;;;;;;4989595;28;19921;-72
2022/07/03 01:21:00;;;;;;;;;;;16.30;88.20;;;;;;4972455;28;20439;-74
2022/07/03 01:23:45;;;;;;;;;;;16.30;87.80;;;;;;4973050;28;19913;-71
2022/07/03 01:26:11;;;;;;;;;;;16.30;87.60;;;;;;4988330;28;19980;-69
2022/07/03 01:28:38;;;;;;;;;;;16.30;87.80;;;;;;4987597;28;19929;-69
2022/07/03 01:31:04;;;;;;;;;;;16.30;88.50;;;;;;4975736;28;19917;-70
2022/07/03 01:33:32;;;;;;;;;;;16.30;88.40;;;;;;4972245;28;20379;-69
2022/07/03 01:35:59;;;;;;;;;;;16.30;89.10;;;;;;4971936;28;20287;-70
2022/07/03 01:38:26;;;;;;;;;;;16.20;89.50;;;;;;4987310;28;19917;-71
2022/07/03 01:40:53;;;;;;;;;;;16.20;90.20;;;;;;4989662;28;19936;-70
2022/07/03 01:43:20;;;;;;;;;;;16.10;89.70;;;;;;4956889;28;20501;-71
2022/07/03 01:45:47;;;;;;;;;;;16.00;90.60;;;;;;4982975;28;19969;-72
2022/07/03 01:48:14;;;;;;;;;;;15.90;89.80;;;;;;4985338;28;19906;-71
2022/07/03 01:50:41;;;;;;;;;;;15.90;89.80;;;;;;4971922;28;19960;-71
2022/07/03 01:53:09;;;;;;;;;;;15.90;90.20;;;;;;4953924;28;20339;-72
2022/07/03 01:55:37;;;;;;;;;;;15.90;90.30;;;;;;4972378;28;20294;-72
2022/07/03 01:58:04;;;;;;;;;;;15.90;89.40;;;;;;4956227;28;19980;-72
2022/07/03 02:00:31;;;;;;;;;;;16.00;88.40;;;;;;4989757;28;19910;-72
2022/07/03 02:03:01;;;;;;;;;;;16.00;88.60;;;;;;4972035;28;19913;-72
2022/07/03 02:05:44;;;;;;;;;;;16.10;88.40;;;;;;4972078;28;19969;-73
2022/07/03 02:08:29;;;;;;;;;;;16.20;88.20;;;;;;4956273;28;19968;-71
2022/07/03 02:10:58;;;;;;;;;;;16.20;86.90;;;;;;4989432;28;19932;-73
2022/07/03 02:13:25;;;;;;;;;;;16.30;86.10;;;;;;4988278;28;20279;-71
2022/07/03 02:15:51;;;;;;;;;;;16.30;85.70;;;;;;4973637;28;20414;-70
2022/07/03 02:18:18;;;;;;;;;;;16.30;86.10;;;;;;4992698;28;19936;-72
2022/07/03 02:20:46;;;;;;;;;;;16.30;86.40;;;;;;4962916;28;20292;-71
2022/07/03 02:23:12;;;;;;;;;;;16.30;86.50;;;;;;4959001;28;19961;-71
2022/07/03 02:25:40;;;;;;;;;;;16.30;86.20;;;;;;4975200;28;19925;-73
2022/07/03 02:28:27;;;;;;;;;;;16.30;86.70;;;;;;4975380;28;20299;-71
2022/07/03 02:30:55;;;;;;;;;;;16.30;85.70;;;;;;4962160;28;19914;-71
2022/07/03 02:33:25;;;;;;;;;;;16.20;87.10;;;;;;4975642;28;20296;-72
2022/07/03 02:35:52;;;;;;;;;;;16.20;87.60;;;;;;4975360;28;19961;-71
2022/07/03 02:38:22;;;;;;;;;;;16.10;88.00;;;;;;4957365;28;19918;-72
2022/07/03 02:40:54;;;;;;;;;;;16.00;88.30;;;;;;4972629;28;19968;-72
2022/07/03 02:43:39;;;;;;;;;;;16.00;89.50;;;;;;4990977;28;19913;-72
2022/07/03 02:49:02;;;;;;;;;;;15.80;91.20;;;;;;4977701;28;19921;-71
2022/07/03 02:51:32;;;;;;;;;;;15.70;92.30;;;;;;4975343;28;19917;-72
2022/07/03 02:54:25;;;;;;;;;;;15.70;93.50;;;;;;4972948;28;19909;-71
2022/07/03 02:56:58;;;;;;;;;;;15.50;94.20;;;;;;4989193;28;20358;-71
2022/07/03 02:59:27;;;;;;;;;;;15.40;94.30;;;;;;4974892;28;20273;-71
2022/07/03 03:02:12;;;;;;;;;;;15.30;95.00;;;;;;4992406;28;19909;-72
2022/07/03 03:04:40;;;;;;;;;;;15.20;95.20;;;;;;4974744;28;19913;-72
2022/07/03 03:07:13;;;;;;;;;;;15.20;95.30;;;;;;4975055;28;19917;-74
2022/07/03 03:09:41;;;;;;;;;;;15.20;95.50;;;;;;4959074;28;20213;-74
2022/07/03 03:12:08;;;;;;;;;;;15.10;95.70;;;;;;4958488;28;20000;-75
2022/07/03 03:14:43;;;;;;;;;;;15.10;96.00;;;;;;4974600;28;20024;-73
2022/07/03 03:17:14;;;;;;;;;;;15.10;96.30;;;;;;4958526;28;19972;-69
2022/07/03 03:19:41;;;;;;;;;;;15.10;96.40;;;;;;4974936;28;19912;-72
2022/07/03 03:22:26;;;;;;;;;;;15.00;96.40;;;;;;4974921;28;20056;-72
2022/07/03 03:24:53;;;;;;;;;;;14.90;96.20;;;;;;4977403;28;19914;-73
2022/07/03 03:27:20;;;;;;;;;;;14.80;96.50;;;;;;4953215;28;20025;-73
2022/07/03 03:29:46;;;;;;;;;;;14.80;96.80;;;;;;4969178;28;19914;-74
2022/07/03 03:32:13;;;;;;;;;;;14.80;96.90;;;;;;4971276;28;19921;-75
2022/07/03 03:34:39;;;;;;;;;;;14.90;97.10;;;;;;4973731;28;19914;-74
2022/07/03 03:37:06;;;;;;;;;;;14.90;97.20;;;;;;4966108;28;19917;-78
2022/07/03 03:39:32;;;;;;;;;;;14.90;97.40;;;;;;4970477;28;19922;-74
2022/07/03 03:42:01;;;;;;;;;;;15.00;97.50;;;;;;4974051;28;19913;-75
2022/07/03 03:44:27;;;;;;;;;;;15.00;97.60;;;;;;4972715;28;19914;-72
2022/07/03 03:46:55;;;;;;;;;;;15.00;97.70;;;;;;4987521;28;19918;-73
2022/07/03 03:49:21;;;;;;;;;;;15.00;97.60;;;;;;4973656;28;19917;-73
2022/07/03 03:51:48;;;;;;;;;;;15.00;97.50;;;;;;4986300;28;19996;-72
2022/07/03 03:54:14;;;;;;;;;;;15.00;97.30;;;;;;4990408;28;19921;-73
2022/07/03 03:56:41;;;;;;;;;;;15.00;97.20;;;;;;4972406;28;19962;-73
2022/07/03 03:59:08;;;;;;;;;;;14.80;97.20;;;;;;4980020;28;19931;-73
2022/07/03 04:01:34;;;;;;;;;;;14.80;97.20;;;;;;4998714;28;19910;-71
2022/07/03 04:04:01;;;;;;;;;;;14.70;97.40;;;;;;4990882;28;19909;-73
2022/07/03 04:06:27;;;;;;;;;;;14.80;97.40;;;;;;4990704;28;20401;-71
2022/07/03 04:08:54;;;;;;;;;;;14.70;97.30;;;;;;4990996;28;19913;-72
2022/07/03 04:11:20;;;;;;;;;;;14.70;97.30;;;;;;4989581;28;19972;-72
2022/07/03 04:13:47;;;;;;;;;;;14.70;97.30;;;;;;4973137;28;20335;-75
2022/07/03 04:16:14;;;;;;;;;;;14.80;97.10;;;;;;4990825;28;19932;-74
2022/07/03 04:18:40;;;;;;;;;;;14.80;97.10;;;;;;4990687;28;20276;-74
2022/07/03 04:21:08;;;;;;;;;;;14.80;97.10;;;;;;4966909;28;20344;-71
2022/07/03 04:23:34;;;;;;;;;;;14.80;97.00;;;;;;4990339;28;20110;-74
2022/07/03 04:26:07;;;;;;;;;;;14.80;96.90;;;;;;4990531;28;20261;-72
2022/07/03 04:28:33;;;;;;;;;;;14.80;96.90;;;;;;4979811;28;19933;-71
2022/07/03 04:31:00;;;;;;;;;;;14.80;96.70;;;;;;4973047;28;19906;-74
2022/07/03 04:33:26;;;;;;;;;;;14.80;96.70;;;;;;4973086;28;19964;-72
2022/07/03 04:35:53;;;;;;;;;;;14.80;96.90;;;;;;4987736;28;20299;-74
2022/07/03 04:38:20;;;;;;;;;;;14.80;96.50;;;;;;4989350;28;20375;-74
2022/07/03 04:40:46;;;;;;;;;;;14.70;96.50;;;;;;4989810;28;19917;-73
2022/07/03 04:43:13;;;;;;;;;;;14.80;96.40;;;;;;4990217;28;19916;-74
2022/07/03 04:45:39;;;;;;;;;;;14.70;96.40;;;;;;4990783;28;19926;-75
2022/07/03 04:48:06;;;;;;;;;;;14.70;96.40;;;;;;4990404;28;19960;-77
2022/07/03 04:50:32;;;;;;;;;;;14.60;95.90;;;;;;4973174;28;19988;-75
2022/07/03 04:52:59;;;;;;;;;;;14.60;96.00;;;;;;4988676;28;19912;-72
2022/07/03 04:55:26;;;;;;;;;;;14.50;95.80;;;;;;4990458;28;19906;-74
2022/07/03 04:57:52;;;;;;;;;;;14.50;95.10;;;;;;4990480;28;19916;-72
2022/07/03 05:00:19;;;;;;;;;;;14.60;95.30;;;;;;4972070;28;19922;-71
2022/07/03 05:02:45;;;;;;;;;;;14.60;95.00;;;;;;4972922;28;19996;-73
2022/07/03 05:05:12;;;;;;;;;;;14.50;95.00;;;;;;4954799;28;19924;-71
2022/07/03 05:07:38;;;;;;;;;;;14.50;95.00;;;;;;4990222;28;19961;-73
2022/07/03 05:10:05;;;;;;;;;;;14.40;95.10;;;;;;4972455;28;19929;-74
2022/07/03 05:12:32;;;;;;;;;;;14.40;95.30;;;;;;4972216;28;19960;-72
2022/07/03 05:14:58;;;;;;;;;;;14.40;95.20;;;;;;4989897;28;20276;-70
2022/07/03 05:17:25;;;;;;;;;;;14.50;95.10;;;;;;4990504;28;19906;-71
2022/07/03 05:20:23;;;;;;;;;;;14.50;95.40;;;;;;4990236;28;20278;-71
2022/07/03 05:22:38;;;;;;;;;;;14.50;95.70;;;;;;4989828;28;19960;-73
2022/07/03 05:25:04;;;;;;;;;;;14.50;95.80;;;;;;4972729;28;19968;-73
2022/07/03 05:27:31;;;;;;;;;;;14.50;95.80;;;;;;4990009;28;19906;-73
2022/07/03 05:29:58;;;;;;;;;;;14.50;96.10;;;;;;4990070;28;20348;-71
2022/07/03 05:32:24;;;;;;;;;;;14.50;96.40;;;;;;4990072;28;19953;-71
2022/07/03 05:34:51;;;;;;;;;;;14.50;96.00;;;;;;4972836;28;20351;-74
2022/07/03 05:37:17;;;;;;;;;;;14.50;96.00;;;;;;4972525;28;19944;-74
2022/07/03 05:39:44;;;;;;;;;;;14.60;96.30;;;;;;4978840;28;19930;-71
2022/07/03 05:42:10;;;;;;;;;;;14.60;95.90;;;;;;4971154;28;20032;-70
2022/07/03 05:44:37;;;;;;;;;;;14.70;95.80;;;;;;4951218;28;19914;-70
2022/07/03 05:47:04;;;;;;;;;;;14.70;95.80;;;;;;4972234;28;20312;-74
2022/07/03 05:49:30;;;;;;;;;;;14.70;96.00;;;;;;4990163;28;19910;-72
2022/07/03 05:51:57;;;;;;;;;;;14.60;96.10;;;;;;4976977;28;19957;-72
2022/07/03 05:54:23;;;;;;;;;;;14.70;96.20;;;;;;4954658;28;19921;-73
2022/07/03 05:56:50;;;;;;;;;;;14.70;96.10;;;;;;4973829;28;19964;-71
2022/07/03 05:59:16;;;;;;;;;;;14.70;96.30;;;;;;4973033;28;19960;-75
2022/07/03 06:01:43;;;;;;;;;;;14.70;96.50;;;;;;4973903;28;19918;-72
2022/07/03 06:04:09;;;;;;;;;;;14.60;96.70;;;;;;4973688;28;19957;-73
2022/07/03 06:06:36;;;;;;;;;;;14.60;96.90;;;;;;4973403;28;19952;-74
2022/07/03 06:09:03;;;;;;;;;;;14.70;97.10;;;;;;4973481;28;19910;-69
2022/07/03 06:11:29;;;;;;;;;;;14.70;97.30;;;;;;4954275;28;19914;-70
2022/07/03 06:13:56;;;;;;;;;;;14.80;97.20;;;;;;4972680;28;20208;-72
2022/07/03 06:16:22;;;;;;;;;;;14.80;97.20;;;;;;4972379;28;20313;-71
2022/07/03 06:18:49;;;;;;;;;;;14.70;97.00;;;;;;4973364;28;20422;-70
2022/07/03 06:21:16;;;;;;;;;;;14.50;96.30;;;;;;4973481;28;19914;-71
2022/07/03 06:23:42;;;;;;;;;;;14.40;95.90;;;;;;4973197;28;19981;-72
2022/07/03 06:26:09;;;;;;;;;;;14.40;96.00;;;;;;4973383;28;20364;-73
2022/07/03 06:28:35;;;;;;;;;;;14.30;96.00;;;;;;4973295;28;19917;-72
2022/07/03 06:31:02;;;;;;;;;;;14.30;95.80;;;;;;4973463;28;19973;-71
2022/07/03 06:33:28;;;;;;;;;;;14.40;95.50;;;;;;4956083;28;19914;-73
2022/07/03 06:35:55;;;;;;;;;;;14.30;95.70;;;;;;4954928;28;19910;-75
2022/07/03 06:38:21;;;;;;;;;;;14.30;95.60;;;;;;4955416;28;19910;-74
2022/07/03 06:40:48;;;;;;;;;;;14.30;95.00;;;;;;4992191;28;19921;-71
2022/07/03 06:43:14;;;;;;;;;;;14.30;95.10;;;;;;4992737;28;19910;-73
2022/07/03 06:45:41;;;;;;;;;;;14.30;93.70;;;;;;4992183;28;19928;-70
2022/07/03 06:48:08;;;;;;;;;;;14.50;92.80;;;;;;4992278;28;19910;-70
2022/07/03 06:50:34;;;;;;;;;;;14.40;93.40;;;;;;4972747;28;19909;-76
2022/07/03 06:53:01;;;;;;;;;;;14.40;93.70;;;;;;4972789;28;20216;-74
2022/07/03 06:55:27;;;;;;;;;;;14.50;95.00;;;;;;4992388;28;20372;-72
2022/07/03 06:57:54;;;;;;;;;;;14.50;95.60;;;;;;4991638;28;19917;-71
2022/07/03 07:00:21;;;;;;;;;;;14.50;95.60;;;;;;4991487;28;19914;-74
2022/07/03 07:02:47;;;;;;;;;;;14.50;95.80;;;;;;4973864;28;19910;-73
2022/07/03 07:05:14;;;;;;;;;;;14.40;95.30;;;;;;4974977;28;20391;-72
2022/07/03 07:07:40;;;;;;;;;;;14.30;95.70;;;;;;4992000;28;20356;-73
2022/07/03 07:10:07;;;;;;;;;;;14.30;95.80;;;;;;4974508;28;19905;-72
2022/07/03 07:12:34;;;;;;;;;;;14.30;96.00;;;;;;4992138;28;19916;-73
2022/07/03 07:15:00;;;;;;;;;;;14.30;96.20;;;;;;4958616;28;19910;-74
2022/07/03 07:17:27;;;;;;;;;;;14.30;96.40;;;;;;4975046;28;19910;-74
2022/07/03 07:19:55;;;;;;;;;;;14.40;96.60;;;;;;4974145;28;20214;-73
2022/07/03 07:22:23;;;;;;;;;;;14.40;96.70;;;;;;4992038;28;20003;-73
2022/07/03 07:24:49;;;;;;;;;;;14.40;96.80;;;;;;4974511;28;19965;-73
2022/07/03 07:27:16;;;;;;;;;;;14.30;96.50;;;;;;4992053;28;19913;-70
2022/07/03 07:29:42;;;;;;;;;;;14.30;96.00;;;;;;4990114;28;20165;-73
2022/07/03 07:32:09;;;;;;;;;;;14.20;96.10;;;;;;4990956;28;20016;-72
2022/07/03 07:34:35;;;;;;;;;;;14.20;96.10;;;;;;4989521;28;19909;-73
2022/07/03 07:37:02;;;;;;;;;;;14.20;96.30;;;;;;4990593;28;19965;-73
2022/07/03 07:39:29;;;;;;;;;;;14.30;96.30;;;;;;4991191;28;20355;-74
2022/07/03 07:41:55;;;;;;;;;;;14.30;96.40;;;;;;4991449;28;19964;-73
2022/07/03 07:44:22;;;;;;;;;;;14.30;95.90;;;;;;4990665;28;19914;-71
2022/07/03 07:46:49;;;;;;;;;;;14.30;95.70;;;;;;4990441;28;19944;-72
2022/07/03 07:49:16;;;;;;;;;;;14.30;95.80;;;;;;4990752;28;19913;-73
2022/07/03 07:51:42;;;;;;;;;;;14.30;95.90;;;;;;4990657;28;20008;-75
2022/07/03 07:54:09;;;;;;;;;;;14.30;95.70;;;;;;4988683;28;20190;-72
2022/07/03 07:56:35;;;;;;;;;;;14.30;95.90;;;;;;4991123;28;19916;-76
2022/07/03 07:59:02;;;;;;;;;;;14.40;96.20;;;;;;4991012;28;19917;-73
2022/07/03 08:06:57;;;;;;;;;;;14.40;96.50;;;;;;4990554;28;19928;-71
2022/07/03 08:09:24;;;;;;;;;;;14.40;96.60;;;;;;4990932;28;19917;-72
2022/07/03 08:11:51;;;;;;;;;;;14.40;96.70;;;;;;4973091;28;19929;-72
2022/07/03 08:14:17;;;;;;;;;;;14.40;96.90;;;;;;4990400;28;19917;-74
2022/07/03 08:16:45;;;;;;;;;;;14.40;96.90;;;;;;4990425;28;19910;-78
2022/07/03 08:19:12;;;;;;;;;;;14.30;96.90;;;;;;4990574;28;19922;-77
2022/07/03 08:21:39;;;;;;;;;;;14.30;96.70;;;;;;4991196;28;19913;-80
2022/07/03 08:24:05;;;;;;;;;;;14.20;96.70;;;;;;4973400;28;19961;-77
2022/07/03 08:26:32;;;;;;;;;;;14.20;96.50;;;;;;4973470;28;19918;-78
2022/07/03 08:28:58;;;;;;;;;;;14.20;96.50;;;;;;4990851;28;19910;-78
2022/07/03 08:31:25;;;;;;;;;;;14.20;96.70;;;;;;4990837;28;19920;-75
2022/07/03 08:33:51;;;;;;;;;;;14.20;96.90;;;;;;4991026;28;19956;-74
2022/07/03 08:36:18;;;;;;;;;;;14.20;97.00;;;;;;4990928;28;19917;-76
2022/07/03 08:38:45;;;;;;;;;;;14.20;96.90;;;;;;4990399;28;19921;-75
2022/07/03 08:41:11;;;;;;;;;;;14.30;96.90;;;;;;4990321;28;19909;-77
2022/07/03 08:43:38;;;;;;;;;;;14.30;96.70;;;;;;4990780;28;19909;-71
2022/07/03 08:46:04;;;;;;;;;;;14.20;96.60;;;;;;4960271;28;20028;-76
2022/07/03 08:48:32;;;;;;;;;;;14.20;96.30;;;;;;4972558;28;19920;-75
2022/07/03 08:50:59;;;;;;;;;;;14.10;96.40;;;;;;4972877;28;20401;-75
2022/07/03 08:53:25;;;;;;;;;;;14.10;96.40;;;;;;4954607;28;20117;-75
2022/07/03 08:55:52;;;;;;;;;;;14.10;96.30;;;;;;4956518;28;19918;-79
2022/07/03 08:58:19;;;;;;;;;;;14.00;96.40;;;;;;4972697;28;20391;-78
2022/07/03 09:00:45;;;;;;;;;;;14.00;96.30;;;;;;4972977;28;19929;-79
2022/07/03 09:03:12;;;;;;;;;;;14.00;96.30;;;;;;4972679;28;20386;-77
2022/07/03 09:05:39;;;;;;;;;;;14.10;96.50;;;;;;4972508;28;19921;-72
2022/07/03 09:08:08;;;;;;;;;;;14.10;96.60;;;;;;4972811;28;20018;-76
2022/07/03 09:10:35;;;;;;;;;;;14.10;96.60;;;;;;4972815;28;19906;-72
2022/07/03 09:13:02;;;;;;;;;;;14.20;96.80;;;;;;4972782;28;20009;-78
2022/07/03 09:15:28;;;;;;;;;;;14.20;96.90;;;;;;4972242;28;19913;-74
2022/07/03 09:17:58;;;;;;;;;;;14.20;96.80;;;;;;4989849;28;19913;-74
2022/07/03 09:20:29;;;;;;;;;;;14.20;96.90;;;;;;4990157;28;20334;-76
2022/07/03 09:22:57;;;;;;;;;;;14.30;97.00;;;;;;4989966;28;19910;-76
2022/07/03 09:25:24;;;;;;;;;;;14.30;97.10;;;;;;4971783;28;20275;-74
2022/07/03 09:27:51;;;;;;;;;;;14.30;97.00;;;;;;4989314;28;20299;-76
2022/07/03 09:30:18;;;;;;;;;;;14.30;97.00;;;;;;4989851;28;19912;-74
2022/07/03 09:32:46;;;;;;;;;;;14.40;97.00;;;;;;4972873;28;19906;-74
2022/07/03 09:35:13;;;;;;;;;;;14.40;97.10;;;;;;4989856;28;19951;-72
2022/07/03 09:37:40;;;;;;;;;;;14.40;97.10;;;;;;4989320;28;19918;-76
2022/07/03 09:40:07;;;;;;;;;;;14.40;97.20;;;;;;4972238;28;20008;-74
2022/07/03 09:42:33;;;;;;;;;;;14.40;97.40;;;;;;4989583;28;19910;-74
2022/07/03 09:45:00;;;;;;;;;;;14.40;97.40;;;;;;4972556;28;19964;-74
2022/07/03 09:47:28;;;;;;;;;;;14.40;97.10;;;;;;4972039;28;20291;-77
2022/07/03 09:49:54;;;;;;;;;;;14.40;96.70;;;;;;4989863;28;19914;-78
2022/07/03 09:52:28;;;;;;;;;;;14.30;96.60;;;;;;4989605;28;19905;-74
2022/07/03 09:54:56;;;;;;;;;;;14.30;96.70;;;;;;4988026;28;19910;-78
2022/07/03 09:57:23;;;;;;;;;;;14.30;96.80;;;;;;4971980;28;19968;-78
2022/07/03 09:59:49;;;;;;;;;;;14.30;97.00;;;;;;4971980;28;19920;-77
2022/07/03 10:02:16;;;;;;;;;;;14.30;97.10;;;;;;4972184;28;19960;-77
2022/07/03 10:04:42;;;;;;;;;;;14.40;97.20;;;;;;4989851;28;19910;-78
2022/07/03 10:07:09;;;;;;;;;;;14.40;97.30;;;;;;4972541;28;19925;-78
2022/07/03 10:09:35;;;;;;;;;;;14.40;97.40;;;;;;4989542;28;20022;-78
2022/07/03 10:12:03;;;;;;;;;;;14.30;97.40;;;;;;4989154;28;19913;-78
2022/07/03 10:14:30;;;;;;;;;;;14.30;97.30;;;;;;4971894;28;20025;-74
2022/07/03 10:17:01;;;;;;;;;;;14.30;97.00;;;;;;4972475;28;19910;-76
2022/07/03 10:19:28;;;;;;;;;;;14.30;97.10;;;;;;4989620;28;20366;-73
2022/07/03 10:21:55;;;;;;;;;;;14.30;97.10;;;;;;4989225;28;20400;-74
2022/07/03 10:24:23;;;;;;;;;;;14.30;97.30;;;;;;4955246;28;19914;-78
2022/07/03 10:26:50;;;;;;;;;;;14.30;97.00;;;;;;4971483;28;20073;-76
2022/07/03 10:29:19;;;;;;;;;;;14.30;96.70;;;;;;4972102;28;19979;-73
2022/07/03 10:31:46;;;;;;;;;;;14.30;96.70;;;;;;4972100;28;19960;-72
2022/07/03 10:34:17;;;;;;;;;;;14.30;96.50;;;;;;4989447;28;20376;-73
2022/07/03 10:36:44;;;;;;;;;;;14.30;96.60;;;;;;4974339;28;19980;-73
2022/07/03 10:39:12;;;;;;;;;;;14.30;96.60;;;;;;4975071;28;20012;-74
2022/07/03 10:47:34;;;;;;;;;;;14.30;96.30;;;;;;4987557;28;20430;-73
2022/07/03 10:50:02;;;;;;;;;;;14.30;96.40;;;;;;4985292;28;19941;-80
2022/07/03 10:52:29;;;;;;;;;;;14.30;96.70;;;;;;4993143;28;20092;-78
2022/07/03 10:54:56;;;;;;;;;;;14.40;96.20;;;;;;4990002;28;19909;-80
2022/07/03 10:57:23;;;;;;;;;;;14.30;95.80;;;;;;4991968;28;19916;-79
2022/07/03 10:59:49;;;;;;;;;;;14.30;96.10;;;;;;4974008;28;19917;-71
2022/07/03 11:02:28;;;;;;;;;;;14.30;96.00;;;;;;4992045;28;19909;-75
2022/07/03 11:07:27;;;;;;;;;;;14.30;96.50;;;;;;4991850;28;19921;-73
2022/07/03 11:10:12;;;;;;;;;;;14.30;96.40;;;;;;4991917;28;20279;-72
2022/07/03 11:12:58;;;;;;;;;;;14.40;96.50;;;;;;4992032;28;19972;-79
2022/07/03 11:15:42;;;;;;;;;;;14.40;96.50;;;;;;4992157;28;19932;-75
2022/07/03 11:18:10;;;;;;;;;;;14.40;95.90;;;;;;4980310;28;19914;-76
2022/07/03 11:20:42;;;;;;;;;;;14.40;95.90;;;;;;4974517;28;20372;-75
2022/07/03 11:23:21;;;;;;;;;;;14.40;96.20;;;;;;4979601;28;20612;-76
2022/07/03 11:25:49;;;;;;;;;;;14.40;96.30;;;;;;4974622;28;20375;-74
2022/07/03 11:28:34;;;;;;;;;;;14.50;96.30;;;;;;4974633;28;20027;-77
2022/07/03 11:31:16;;;;;;;;;;;14.50;96.20;;;;;;4992365;28;20355;-76
2022/07/03 11:33:43;;;;;;;;;;;14.50;95.90;;;;;;4992501;28;20335;-75
2022/07/03 11:36:12;;;;;;;;;;;14.50;95.50;;;;;;4991867;28;19928;-74
2022/07/03 11:38:39;;;;;;;;;;;14.70;95.40;;;;;;4991639;28;19910;-73
2022/07/03 11:41:13;;;;;;;;;;;14.70;95.50;;;;;;4974517;28;19909;-76
2022/07/03 11:43:49;;;;;;;;;;;14.70;95.70;;;;;;4974061;28;20012;-75
2022/07/03 11:46:19;;;;;;;;;;;14.70;95.70;;;;;;4991498;28;19925;-75
2022/07/03 11:48:45;;;;;;;;;;;14.70;95.50;;;;;;4973353;28;19949;-77
2022/07/03 11:51:12;;;;;;;;;;;14.70;95.30;;;;;;4992014;28;19910;-76
2022/07/03 11:53:39;;;;;;;;;;;14.70;95.20;;;;;;4973482;28;20376;-75
2022/07/03 11:56:06;;;;;;;;;;;14.70;95.00;;;;;;4974473;28;19932;-78
2022/07/03 11:58:52;;;;;;;;;;;14.80;94.90;;;;;;4974439;28;20244;-76
2022/07/03 12:01:27;;;;;;;;;;;14.80;95.00;;;;;;4974020;28;19929;-78
2022/07/03 12:03:59;;;;;;;;;;;14.80;94.90;;;;;;4991447;28;19914;-76
2022/07/03 12:06:26;;;;;;;;;;;14.90;94.70;;;;;;4974589;28;20303;-75
2022/07/03 12:08:52;;;;;;;;;;;15.00;94.80;;;;;;4992257;28;19909;-77
2022/07/03 12:11:19;;;;;;;;;;;15.00;94.60;;;;;;4973594;28;19921;-78
2022/07/03 12:13:45;;;;;;;;;;;15.00;94.60;;;;;;4974420;28;20687;-75
2022/07/03 12:16:13;;;;;;;;;;;15.00;94.30;;;;;;4991634;28;19906;-75
2022/07/03 12:18:47;;;;;;;;;;;15.00;94.50;;;;;;4991219;28;20427;-73
2022/07/03 12:21:13;;;;;;;;;;;15.10;94.20;;;;;;4991101;28;19920;-76
2022/07/03 12:23:50;;;;;;;;;;;15.10;94.20;;;;;;4973952;28;20609;-77
2022/07/03 12:26:33;;;;;;;;;;;15.00;94.50;;;;;;4983109;28;19924;-76
2022/07/03 12:29:00;;;;;;;;;;;15.00;94.20;;;;;;4990776;28;20711;-76
2022/07/03 12:31:27;;;;;;;;;;;15.00;94.70;;;;;;4973253;28;20008;-74
2022/07/03 12:33:53;;;;;;;;;;;15.00;95.30;;;;;;4973501;28;19910;-73
2022/07/03 12:36:20;;;;;;;;;;;14.90;95.80;;;;;;4973779;28;19965;-75
2022/07/03 12:38:49;;;;;;;;;;;14.90;96.20;;;;;;4990398;28;20358;-77
2022/07/03 12:41:16;;;;;;;;;;;14.80;96.60;;;;;;4992124;28;19913;-73
2022/07/03 12:43:43;;;;;;;;;;;14.80;96.80;;;;;;4990968;28;19906;-73
2022/07/03 12:46:19;;;;;;;;;;;14.70;96.70;;;;;;4990382;28;19924;-75
2022/07/03 12:48:51;;;;;;;;;;;14.80;96.60;;;;;;4990321;28;19991;-74
2022/07/03 12:51:37;;;;;;;;;;;14.80;96.80;;;;;;4991224;28;19910;-77
2022/07/03 12:54:04;;;;;;;;;;;14.70;96.50;;;;;;4989279;28;19926;-76
2022/07/03 12:56:30;;;;;;;;;;;14.80;96.30;;;;;;4972793;28;19909;-74
2022/07/03 12:59:18;;;;;;;;;;;14.80;96.30;;;;;;4971954;28;20454;-74
2022/07/03 13:02:04;;;;;;;;;;;14.80;96.30;;;;;;4976651;28;20004;-74
2022/07/03 13:04:32;;;;;;;;;;;14.80;96.20;;;;;;4990379;28;20013;-75
2022/07/03 13:07:16;;;;;;;;;;;14.80;96.20;;;;;;4990396;28;19917;-76
2022/07/03 13:09:43;;;;;;;;;;;14.90;95.90;;;;;;4978605;28;20255;-72
2022/07/03 13:12:10;;;;;;;;;;;15.00;95.40;;;;;;4973520;28;19909;-74
2022/07/03 13:14:37;;;;;;;;;;;15.10;95.50;;;;;;4959872;28;19964;-74
2022/07/03 13:17:03;;;;;;;;;;;15.10;95.70;;;;;;4990550;28;20008;-77
2022/07/03 13:19:30;;;;;;;;;;;15.10;95.90;;;;;;4989251;28;20302;-74
2022/07/03 13:21:58;;;;;;;;;;;15.10;95.80;;;;;;4990477;28;19913;-73
2022/07/03 13:24:25;;;;;;;;;;;15.20;95.80;;;;;;4990092;28;19996;-74
2022/07/03 13:26:51;;;;;;;;;;;15.10;96.20;;;;;;4975788;28;19913;-75
2022/07/03 13:29:18;;;;;;;;;;;15.00;96.40;;;;;;4975633;28;20008;-74
2022/07/03 13:31:44;;;;;;;;;;;15.00;96.50;;;;;;4992806;28;19913;-73
2022/07/03 13:34:11;;;;;;;;;;;15.10;96.30;;;;;;4993026;28;19906;-74
2022/07/03 13:36:37;;;;;;;;;;;15.10;96.40;;;;;;4992919;28;20044;-73
2022/07/03 13:39:04;;;;;;;;;;;15.00;96.40;;;;;;4992378;28;19925;-77
2022/07/03 13:41:31;;;;;;;;;;;15.10;96.60;;;;;;4992494;28;19913;-74
2022/07/03 13:43:57;;;;;;;;;;;15.10;96.60;;;;;;4992583;28;19914;-73
2022/07/03 13:46:24;;;;;;;;;;;15.10;96.60;;;;;;4992577;28;19921;-75
2022/07/03 13:48:51;;;;;;;;;;;15.10;96.50;;;;;;4992474;28;20473;-74
2022/07/03 13:51:18;;;;;;;;;;;15.10;96.60;;;;;;4975652;28;20367;-73
2022/07/03 13:53:44;;;;;;;;;;;15.10;96.60;;;;;;4992713;28;19906;-74
2022/07/03 13:56:11;;;;;;;;;;;15.10;96.30;;;;;;4992903;28;20005;-76
2022/07/03 13:58:40;;;;;;;;;;;15.10;95.80;;;;;;4974978;28;19914;-73
2022/07/03 14:01:07;;;;;;;;;;;15.10;95.70;;;;;;4992672;28;19905;-76
2022/07/03 14:03:33;;;;;;;;;;;15.10;95.60;;;;;;4992384;28;19917;-74
2022/07/03 14:06:00;;;;;;;;;;;15.20;95.50;;;;;;4991710;28;19914;-74
2022/07/03 14:08:27;;;;;;;;;;;15.20;95.20;;;;;;4974814;28;20442;-74
2022/07/03 14:10:53;;;;;;;;;;;15.20;95.10;;;;;;4994302;28;19997;-74
2022/07/03 14:13:20;;;;;;;;;;;15.20;95.10;;;;;;4996564;28;19902;-73
2022/07/03 14:15:46;;;;;;;;;;;15.20;95.20;;;;;;4996364;28;19912;-74
2022/07/03 14:18:13;;;;;;;;;;;15.30;95.20;;;;;;4978706;28;19914;-73
2022/07/03 14:20:39;;;;;;;;;;;15.20;95.40;;;;;;4978689;28;19953;-73
2022/07/03 14:23:06;;;;;;;;;;;15.20;95.80;;;;;;4996333;28;19918;-72
2022/07/03 14:25:32;;;;;;;;;;;15.10;95.30;;;;;;4995834;28;19910;-73
2022/07/03 14:33:28;;;;;;;;;;;15.20;94.10;;;;;;4996249;28;20389;-72
2022/07/03 14:35:55;;;;;;;;;;;15.20;93.50;;;;;;4978503;28;19909;-74
2022/07/03 14:38:22;;;;;;;;;;;15.20;93.60;;;;;;4995628;28;19918;-74
2022/07/03 14:40:48;;;;;;;;;;;15.20;93.00;;;;;;4995562;28;19917;-76
2022/07/03 14:43:15;;;;;;;;;;;15.20;92.40;;;;;;4978366;28;19953;-74
2022/07/03 14:45:41;;;;;;;;;;;15.30;91.90;;;;;;4995769;28;19941;-73